McLain, Oklahoma
Current Conditions -  °F | °C
As of 5:53 PM on Sunday 23 Nov 2014 (Local Time) from KMKO Reporting Station
Clear Clear  
Wind Chill: 58°   Ceiling: Unl
Heat Index: 58°   Visibility: 10mi
Dew Point: 48°   Wind: 10mph
Humidity: 70%   Direction: 280°W
Pressure: 29.38"   Gusts: NA
Location:  35.6818°N, 95.3578°W
Report Text: KMKO 232353Z AUTO 28009KT 10SM CLR 14/09 A2938 RMK AO2 SLP946 T01440089 10211 20144 53027
Loading
Personal Weather Stations






























Interactive Weather Map New forecast layout! Learn more

10-Day Weather Forecast

Advertisements
Track Severe Weather on mobile